Time;durP1;ratioP1;P1;durP2;ratioP2;P2;SDS_P1;SDS_P2;PMS_P1;PMS_P2;Temp;Humidity;BMP_temperature;BMP_pressure;BME280_temperature;BME280_humidity;BME280_pressure;Samples;Min_cycle;Max_cycle;Signal;HPM_P1;HPM_P2
2023/05/07 00:02:17;;;;;;;6.32;5.10;;;13.10;99.90;;;;;;6268570;28;20076;-77
2023/05/07 00:05:19;;;;;;;10.10;6.07;;;13.10;99.90;;;;;;6264168;28;20056;-77
2023/05/07 00:08:21;;;;;;;6.55;5.93;;;13.00;99.90;;;;;;6265384;28;20049;-77
2023/05/07 00:11:23;;;;;;;6.47;4.80;;;13.00;99.90;;;;;;6268695;28;20633;-78
2023/05/07 00:14:26;;;;;;;6.38;5.70;;;13.00;99.90;;;;;;6265991;28;20056;-77
2023/05/07 00:17:27;;;;;;;6.45;5.60;;;12.90;99.90;;;;;;6265528;28;20045;-77
2023/05/07 00:20:29;;;;;;;7.28;6.60;;;12.90;99.90;;;;;;6262233;28;20056;-77
2023/05/07 00:23:31;;;;;;;7.93;5.40;;;12.90;99.90;;;;;;6262665;28;20044;-77
2023/05/07 00:26:33;;;;;;;7.07;6.38;;;12.90;99.90;;;;;;6263126;28;20043;-78
2023/05/07 00:29:36;;;;;;;7.47;5.38;;;12.90;99.90;;;;;;6262512;28;20061;-78
2023/05/07 00:32:38;;;;;;;5.75;5.18;;;12.90;99.90;;;;;;6266407;28;20040;-77
2023/05/07 00:35:40;;;;;;;5.90;5.30;;;12.80;99.90;;;;;;6260493;28;20068;-77
2023/05/07 00:38:42;;;;;;;6.65;5.80;;;12.80;99.90;;;;;;6262971;28;20049;-77
2023/05/07 00:41:43;;;;;;;6.50;5.45;;;12.80;99.90;;;;;;6262858;28;20053;-77
2023/05/07 00:44:46;;;;;;;7.15;5.72;;;12.70;99.90;;;;;;6264663;28;20049;-77
2023/05/07 00:47:48;;;;;;;5.78;5.25;;;12.70;99.90;;;;;;6252960;28;20053;-78
2023/05/07 00:50:50;;;;;;;6.85;6.25;;;12.70;99.90;;;;;;6251810;28;20518;-76
2023/05/07 00:53:52;;;;;;;5.28;4.78;;;12.70;99.90;;;;;;6246153;28;20056;-77
2023/05/07 00:56:54;;;;;;;6.72;5.35;;;12.70;99.90;;;;;;6252493;28;20041;-78
2023/05/07 00:59:57;;;;;;;5.35;4.95;;;12.70;99.90;;;;;;6249243;28;20064;-78
2023/05/07 01:02:59;;;;;;;8.00;6.10;;;12.60;99.90;;;;;;6249518;28;20057;-77
2023/05/07 01:06:02;;;;;;;6.90;6.18;;;12.60;99.90;;;;;;6251028;28;20411;-78
2023/05/07 01:09:05;;;;;;;5.97;5.32;;;12.50;99.90;;;;;;6247502;28;20384;-77
2023/05/07 01:12:08;;;;;;;9.32;6.03;;;12.60;99.90;;;;;;6251246;28;20079;-78
2023/05/07 01:15:11;;;;;;;6.72;5.38;;;12.60;99.90;;;;;;6251535;28;20606;-78
2023/05/07 01:18:14;;;;;;;6.28;5.30;;;12.60;99.90;;;;;;6249583;28;20412;-77
2023/05/07 01:21:18;;;;;;;6.85;6.15;;;12.60;99.90;;;;;;6248674;28;20188;-78
2023/05/07 01:24:22;;;;;;;7.53;5.85;;;12.60;99.90;;;;;;6247970;28;20045;-78
2023/05/07 01:27:23;;;;;;;7.65;5.45;;;12.60;99.90;;;;;;6252830;28;20046;-78
2023/05/07 01:30:25;;;;;;;6.28;4.82;;;12.60;99.90;;;;;;6250463;28;20041;-78
2023/05/07 01:33:31;;;;;;;5.88;4.97;;;12.60;99.90;;;;;;6252277;28;20049;-77
2023/05/07 01:36:34;;;;;;;5.05;4.50;;;12.60;99.90;;;;;;6248897;28;20045;-77
2023/05/07 01:39:39;;;;;;;7.88;5.38;;;12.60;99.90;;;;;;6251377;28;20049;-78
2023/05/07 01:42:43;;;;;;;6.65;6.05;;;12.60;99.90;;;;;;6251068;28;20054;-77
2023/05/07 01:45:46;;;;;;;5.15;4.65;;;12.60;99.90;;;;;;6250369;28;20045;-77
2023/05/07 01:48:48;;;;;;;9.55;6.75;;;12.60;99.90;;;;;;6247328;28;20045;-77
2023/05/07 01:51:50;;;;;;;7.45;4.60;;;12.60;99.90;;;;;;6251609;28;20048;-78
2023/05/07 01:54:53;;;;;;;5.60;5.10;;;12.60;99.90;;;;;;6249451;28;20056;-78
2023/05/07 01:57:55;;;;;;;9.90;5.07;;;12.60;99.90;;;;;;6248559;28;20041;-78
2023/05/07 02:00:56;;;;;;;5.85;5.25;;;12.60;99.90;;;;;;6249442;28;20045;-78
2023/05/07 02:03:58;;;;;;;6.25;5.05;;;12.60;99.90;;;;;;6251499;28;20061;-78
2023/05/07 02:07:00;;;;;;;4.82;4.43;;;12.50;99.90;;;;;;6248339;28;20420;-77
2023/05/07 02:10:03;;;;;;;6.38;5.10;;;12.50;99.90;;;;;;6250156;28;20403;-78
2023/05/07 02:13:05;;;;;;;6.50;5.82;;;12.40;99.90;;;;;;6249779;28;20052;-78
2023/05/07 02:16:07;;;;;;;5.18;4.20;;;12.50;99.90;;;;;;6248234;28;20427;-78
2023/05/07 02:19:09;;;;;;;5.32;4.82;;;12.40;99.90;;;;;;6249436;28;20411;-78
2023/05/07 02:22:11;;;;;;;8.35;6.07;;;12.30;99.90;;;;;;6248579;28;20499;-77
2023/05/07 02:25:14;;;;;;;5.18;4.70;;;12.20;99.90;;;;;;6247673;28;20057;-77
2023/05/07 02:28:16;;;;;;;5.25;4.80;;;12.20;99.90;;;;;;6248374;28;20124;-77
2023/05/07 02:31:17;;;;;;;5.35;4.78;;;12.20;99.90;;;;;;6248318;28;20458;-78
2023/05/07 02:34:19;;;;;;;5.68;4.38;;;12.20;99.90;;;;;;6246792;28;20044;-78
2023/05/07 02:37:21;;;;;;;5.68;4.43;;;12.10;99.90;;;;;;6248285;28;20416;-77
2023/05/07 02:40:24;;;;;;;6.15;5.03;;;12.10;99.90;;;;;;6249237;28;20042;-78
2023/05/07 02:43:26;;;;;;;5.55;5.15;;;12.00;99.90;;;;;;6249596;28;20519;-77
2023/05/07 02:46:28;;;;;;;5.63;5.18;;;12.00;99.90;;;;;;6248188;28;20100;-77
2023/05/07 02:49:29;;;;;;;6.38;5.82;;;12.00;99.90;;;;;;6247320;28;20057;-77
2023/05/07 02:52:31;;;;;;;5.40;4.90;;;12.00;99.90;;;;;;6247852;28;20484;-78
2023/05/07 02:55:34;;;;;;;7.38;6.68;;;11.90;99.90;;;;;;6252170;28;20037;-77
2023/05/07 02:58:36;;;;;;;5.32;4.82;;;11.90;99.90;;;;;;6251231;28;20123;-78
2023/05/07 03:01:37;;;;;;;6.55;5.90;;;11.80;99.90;;;;;;6250006;28;20507;-77
2023/05/07 03:04:40;;;;;;;4.78;4.28;;;11.80;99.90;;;;;;6246902;28;20037;-77
2023/05/07 03:07:45;;;;;;;8.90;5.10;;;11.80;99.90;;;;;;6248117;28;20072;-77
2023/05/07 03:10:48;;;;;;;6.55;4.10;;;11.70;99.90;;;;;;6245937;28;20059;-76
2023/05/07 03:13:50;;;;;;;6.75;5.28;;;11.70;99.90;;;;;;6245925;28;20109;-77
2023/05/07 03:16:52;;;;;;;7.45;5.07;;;11.70;99.90;;;;;;6249137;28;20045;-77
2023/05/07 03:19:53;;;;;;;6.82;5.22;;;11.60;99.90;;;;;;6247539;28;20049;-77
2023/05/07 03:22:55;;;;;;;5.65;5.15;;;11.60;99.90;;;;;;6246114;28;20059;-78
2023/05/07 03:25:58;;;;;;;6.80;6.00;;;11.60;99.90;;;;;;6245661;28;20053;-78
2023/05/07 03:29:00;;;;;;;5.20;4.70;;;11.60;99.90;;;;;;6245081;28;20064;-78
2023/05/07 03:32:01;;;;;;;5.22;4.63;;;11.60;99.90;;;;;;6253118;28;20123;-78
2023/05/07 03:35:03;;;;;;;7.65;5.00;;;11.60;99.90;;;;;;6252699;28;20440;-77
2023/05/07 03:38:05;;;;;;;7.57;4.93;;;11.60;99.90;;;;;;6251061;28;20085;-77
2023/05/07 03:41:08;;;;;;;6.43;5.82;;;11.50;99.90;;;;;;6252903;28;20530;-76
2023/05/07 03:44:10;;;;;;;7.57;5.88;;;11.50;99.90;;;;;;6250821;28;20053;-77
2023/05/07 03:47:13;;;;;;;7.20;5.50;;;11.50;99.90;;;;;;6253706;28;20064;-77
2023/05/07 03:50:14;;;;;;;5.75;5.00;;;11.50;99.90;;;;;;6249631;28;20049;-78
2023/05/07 03:53:16;;;;;;;5.35;4.80;;;11.50;99.90;;;;;;6252214;28;20045;-76
2023/05/07 03:56:19;;;;;;;6.47;4.93;;;11.40;99.90;;;;;;6250226;28;20488;-78
2023/05/07 03:59:21;;;;;;;6.90;5.00;;;11.40;99.90;;;;;;6250353;28;20053;-78
2023/05/07 04:02:22;;;;;;;8.10;5.95;;;11.40;99.90;;;;;;6252161;28;20045;-77
2023/05/07 04:05:25;;;;;;;5.97;5.43;;;11.40;99.90;;;;;;6248937;28;20041;-77
2023/05/07 04:08:26;;;;;;;9.10;5.63;;;11.40;99.90;;;;;;6249242;28;20431;-76
2023/05/07 04:11:29;;;;;;;8.95;5.80;;;11.40;99.90;;;;;;6250816;28;20052;-78
2023/05/07 04:14:32;;;;;;;7.20;6.50;;;11.40;99.90;;;;;;6250490;28;20049;-77
2023/05/07 04:17:33;;;;;;;7.15;5.80;;;11.40;99.90;;;;;;6251667;28;20041;-77
2023/05/07 04:20:36;;;;;;;7.95;6.40;;;11.40;99.90;;;;;;6250100;28;20048;-78
2023/05/07 04:23:38;;;;;;;6.43;5.78;;;11.50;99.90;;;;;;6250748;28;20056;-77
2023/05/07 04:26:41;;;;;;;5.63;4.68;;;11.50;99.90;;;;;;6250254;28;20049;-77
2023/05/07 04:29:46;;;;;;;5.90;5.30;;;11.60;99.90;;;;;;6248545;28;20526;-78
2023/05/07 04:32:48;;;;;;;5.22;4.72;;;11.60;99.90;;;;;;6250072;28;20057;-77
2023/05/07 04:35:50;;;;;;;6.03;4.43;;;11.60;99.90;;;;;;6248126;28;20052;-77
2023/05/07 04:38:52;;;;;;;6.47;4.50;;;11.70;99.90;;;;;;6248344;28;20056;-76
2023/05/07 04:41:55;;;;;;;5.60;5.10;;;11.70;99.90;;;;;;6250316;28;20053;-78
2023/05/07 04:44:57;;;;;;;5.30;4.78;;;11.70;99.90;;;;;;6248432;28;20037;-79
2023/05/07 04:47:58;;;;;;;5.28;4.80;;;11.80;99.90;;;;;;6249554;28;20060;-78
2023/05/07 04:51:00;;;;;;;8.63;5.35;;;11.90;99.90;;;;;;6244380;28;20497;-79
2023/05/07 04:54:02;;;;;;;6.00;4.95;;;11.90;99.90;;;;;;6245696;28;20049;-78
2023/05/07 04:57:06;;;;;;;5.32;4.80;;;12.10;99.90;;;;;;6246313;28;20049;-78
2023/05/07 05:00:09;;;;;;;11.80;5.53;;;12.20;99.90;;;;;;6247354;28;20052;-77
2023/05/07 05:03:11;;;;;;;6.05;5.22;;;12.30;99.90;;;;;;6251787;28;20077;-77
2023/05/07 05:06:13;;;;;;;5.30;4.22;;;12.40;99.90;;;;;;6248177;28;20055;-77
2023/05/07 05:09:15;;;;;;;4.22;3.75;;;12.50;99.90;;;;;;6249594;28;20053;-78
2023/05/07 05:12:18;;;;;;;5.10;4.70;;;12.50;99.90;;;;;;6250137;28;20072;-78
2023/05/07 05:15:20;;;;;;;4.93;4.50;;;12.60;99.90;;;;;;6248136;28;20419;-78
2023/05/07 05:18:22;;;;;;;6.15;4.38;;;12.70;99.90;;;;;;6249578;28;20055;-77
2023/05/07 05:21:23;;;;;;;5.43;4.93;;;12.90;99.90;;;;;;6250617;28;20048;-77
2023/05/07 05:24:25;;;;;;;5.18;4.20;;;13.00;99.90;;;;;;6255402;28;20049;-77
2023/05/07 05:27:29;;;;;;;6.78;4.28;;;13.10;99.90;;;;;;6261091;28;20051;-76
2023/05/07 05:30:31;;;;;;;5.35;4.22;;;13.30;99.90;;;;;;6254143;28;20037;-77
2023/05/07 05:33:32;;;;;;;6.90;4.38;;;13.50;99.90;;;;;;6254759;28;20420;-77
2023/05/07 05:36:34;;;;;;;5.05;3.78;;;13.70;99.90;;;;;;6255919;28;20044;-77
2023/05/07 05:39:36;;;;;;;4.47;4.07;;;13.90;99.90;;;;;;6256247;28;20412;-77
2023/05/07 05:42:39;;;;;;;7.80;4.78;;;14.20;99.90;;;;;;6252001;28;20069;-79
2023/05/07 05:45:41;;;;;;;6.93;4.53;;;14.60;99.90;;;;;;6244015;28;20419;-79
2023/05/07 05:48:42;;;;;;;4.57;4.18;;;14.90;99.90;;;;;;6245577;28;20046;-78
2023/05/07 05:51:44;;;;;;;4.38;3.97;;;15.20;99.90;;;;;;6249666;28;20076;-78
2023/05/07 05:54:46;;;;;;;5.50;4.65;;;15.70;99.90;;;;;;6249085;28;20862;-77
2023/05/07 05:57:49;;;;;;;4.85;4.10;;;16.00;99.90;;;;;;6256008;28;20050;-77
2023/05/07 06:00:53;;;;;;;4.13;3.83;;;16.20;99.90;;;;;;6255357;28;20049;-77
2023/05/07 06:03:54;;;;;;;6.88;4.50;;;16.30;99.90;;;;;;6257919;28;20053;-78
2023/05/07 06:06:56;;;;;;;6.25;4.18;;;16.40;99.90;;;;;;6242814;28;20041;-79
2023/05/07 06:09:58;;;;;;;4.07;3.67;;;16.50;99.90;;;;;;6246334;28;20411;-78
2023/05/07 06:13:01;;;;;;;4.93;4.25;;;16.50;99.90;;;;;;6245558;28;20049;-78
2023/05/07 06:16:02;;;;;;;4.60;4.20;;;16.80;99.90;;;;;;6248308;28;20393;-79
2023/05/07 06:19:04;;;;;;;10.73;4.90;;;17.00;99.90;;;;;;6247131;28;20037;-78
2023/05/07 06:22:06;;;;;;;4.57;3.20;;;17.30;99.90;;;;;;6245244;28;20060;-78
2023/05/07 06:25:08;;;;;;;7.22;3.55;;;17.70;99.90;;;;;;6246893;28;20048;-78
2023/05/07 06:28:11;;;;;;;5.85;3.33;;;18.10;99.90;;;;;;6247759;28;20076;-78
2023/05/07 06:31:15;;;;;;;4.25;3.30;;;18.30;99.90;;;;;;6247639;28;20054;-79
2023/05/07 06:34:16;;;;;;;6.32;3.35;;;18.30;99.90;;;;;;6249128;28;20435;-79
2023/05/07 06:37:18;;;;;;;4.38;3.30;;;18.50;99.90;;;;;;6247891;28;20056;-79
2023/05/07 06:40:19;;;;;;;4.78;3.13;;;18.80;99.90;;;;;;6249837;28;20061;-78
2023/05/07 06:43:22;;;;;;;4.95;3.67;;;19.30;99.90;;;;;;6246006;28;20053;-79
2023/05/07 06:46:24;;;;;;;3.50;3.20;;;19.80;99.90;;;;;;6248169;28;20050;-79
2023/05/07 06:49:26;;;;;;;6.30;3.40;;;20.10;99.90;;;;;;6250936;28;20049;-78
2023/05/07 06:52:27;;;;;;;4.13;3.58;;;20.10;99.90;;;;;;6258675;28;20061;-77
2023/05/07 06:55:29;;;;;;;3.50;3.20;;;20.00;99.90;;;;;;6258607;28;20045;-77
2023/05/07 06:58:32;;;;;;;5.00;3.20;;;20.00;99.90;;;;;;6259501;28;20060;-78
2023/05/07 07:01:34;;;;;;;4.53;2.70;;;20.30;99.90;;;;;;6258260;28;20049;-78
2023/05/07 07:04:36;;;;;;;7.07;3.85;;;21.10;99.90;;;;;;6264648;28;20040;-78
2023/05/07 07:07:37;;;;;;;2.88;2.67;;;22.00;99.90;;;;;;6271292;28;20045;-78
2023/05/07 07:10:39;;;;;;;9.15;3.88;;;22.80;99.90;;;;;;6271748;28;20045;-78
2023/05/07 07:13:43;;;;;;;4.63;2.33;;;23.40;98.60;;;;;;6273813;28;20055;-78
2023/05/07 07:16:46;;;;;;;3.38;2.97;;;23.70;96.60;;;;;;6274328;28;20076;-78
2023/05/07 07:19:48;;;;;;;5.03;2.25;;;23.00;95.70;;;;;;6271734;28;20060;-78
2023/05/07 07:22:49;;;;;;;4.20;2.17;;;22.40;95.90;;;;;;6273917;28;20061;-78
2023/05/07 07:25:51;;;;;;;4.22;2.15;;;22.10;96.40;;;;;;6271453;28;20041;-78
2023/05/07 07:28:54;;;;;;;4.63;2.83;;;21.90;96.40;;;;;;6273264;28;20048;-78
2023/05/07 07:31:56;;;;;;;3.38;2.33;;;22.00;96.50;;;;;;6272584;28;20049;-78
2023/05/07 07:34:57;;;;;;;3.38;2.65;;;22.20;96.20;;;;;;6270194;28;20044;-77
2023/05/07 07:37:59;;;;;;;3.05;2.55;;;22.10;95.50;;;;;;6270079;28;20059;-77
2023/05/07 07:41:01;;;;;;;5.63;2.35;;;21.60;95.80;;;;;;6269547;28;20045;-78
2023/05/07 07:44:07;;;;;;;4.85;2.75;;;21.30;96.30;;;;;;6263547;28;20080;-77
2023/05/07 07:47:08;;;;;;;3.15;2.45;;;21.20;96.50;;;;;;6268622;28;20046;-77
2023/05/07 07:50:11;;;;;;;3.97;2.45;;;21.40;96.40;;;;;;6266041;28;20127;-78
2023/05/07 07:53:12;;;;;;;4.07;2.13;;;21.50;96.00;;;;;;6267072;28;20057;-78
2023/05/07 07:56:15;;;;;;;5.88;2.25;;;21.40;95.50;;;;;;6266045;28;20045;-78
2023/05/07 07:59:18;;;;;;;3.67;2.65;;;21.60;95.60;;;;;;6270229;28;20128;-78
2023/05/07 08:02:20;;;;;;;2.75;2.55;;;22.10;95.10;;;;;;6271729;28;20113;-78
2023/05/07 08:05:22;;;;;;;2.67;1.75;;;22.60;94.50;;;;;;6269817;28;20072;-78
2023/05/07 08:08:24;;;;;;;3.25;1.55;;;23.20;93.70;;;;;;6272998;28;20045;-78
2023/05/07 08:11:25;;;;;;;5.20;2.17;;;24.20;92.90;;;;;;6266118;28;20056;-79
2023/05/07 08:14:29;;;;;;;4.97;2.25;;;24.90;91.10;;;;;;6253306;28;20080;-78
2023/05/07 08:17:30;;;;;;;2.22;2.10;;;25.40;90.00;;;;;;6251476;28;20468;-79
2023/05/07 08:20:33;;;;;;;3.78;2.20;;;25.50;88.40;;;;;;6251983;28;20049;-79
2023/05/07 08:23:34;;;;;;;4.53;2.35;;;26.30;86.30;;;;;;6252057;28;20054;-78
2023/05/07 08:26:38;;;;;;;3.60;2.40;;;26.50;83.70;;;;;;6252974;28;20060;-79
2023/05/07 08:29:41;;;;;;;2.78;2.38;;;26.30;81.60;;;;;;6254322;28;20049;-79
2023/05/07 08:32:43;;;;;;;2.75;2.25;;;26.20;81.40;;;;;;6255513;28;20064;-80
2023/05/07 08:35:45;;;;;;;5.53;2.97;;;26.50;80.60;;;;;;6256983;28;20051;-79
2023/05/07 08:38:46;;;;;;;5.50;2.28;;;27.10;79.10;;;;;;6250417;28;20045;-80
2023/05/07 08:41:49;;;;;;;3.58;3.20;;;27.50;77.80;;;;;;6257223;28;20044;-76
2023/05/07 08:44:54;;;;;;;4.25;3.47;;;28.00;76.30;;;;;;6250214;28;20542;-78
2023/05/07 08:48:00;;;;;;;2.88;2.60;;;28.20;74.10;;;;;;6248586;28;20049;-78
2023/05/07 08:51:02;;;;;;;3.13;2.67;;;28.50;72.70;;;;;;6247875;28;20041;-78
2023/05/07 08:54:04;;;;;;;3.15;2.85;;;28.60;72.30;;;;;;6250991;28;20045;-79
2023/05/07 08:57:06;;;;;;;2.67;2.47;;;29.00;70.60;;;;;;6246905;28;20055;-78
2023/05/07 09:00:10;;;;;;;3.28;2.90;;;28.50;69.90;;;;;;6244823;28;20049;-75
2023/05/07 09:03:13;;;;;;;5.32;2.55;;;27.70;70.30;;;;;;6244673;28;20120;-76
2023/05/07 09:06:16;;;;;;;4.00;3.33;;;27.10;72.10;;;;;;6246387;28;20456;-76
2023/05/07 09:09:19;;;;;;;5.90;3.20;;;26.70;72.80;;;;;;6245161;28;20053;-76
2023/05/07 09:12:21;;;;;;;3.22;2.55;;;26.30;72.90;;;;;;6243600;28;20091;-76
2023/05/07 09:15:24;;;;;;;4.47;2.55;;;26.00;73.70;;;;;;6244585;28;20064;-76
2023/05/07 09:18:26;;;;;;;5.72;3.55;;;25.80;74.20;;;;;;6246560;28;20049;-77
2023/05/07 09:21:28;;;;;;;9.93;3.35;;;25.80;74.70;;;;;;6246386;28;20050;-76
2023/05/07 09:24:33;;;;;;;3.90;2.90;;;25.70;75.10;;;;;;6249189;28;20052;-77
2023/05/07 09:27:35;;;;;;;4.55;2.92;;;25.70;74.90;;;;;;6252150;28;20149;-79
2023/05/07 09:30:38;;;;;;;9.07;3.60;;;25.60;75.10;;;;;;6251119;28;20056;-79
2023/05/07 09:33:40;;;;;;;2.88;2.67;;;25.50;75.60;;;;;;6247913;28;20051;-79
2023/05/07 09:36:42;;;;;;;5.97;3.08;;;25.40;75.90;;;;;;6248735;28;20052;-79
2023/05/07 09:39:46;;;;;;;5.90;3.15;;;25.50;76.00;;;;;;6250600;28;20049;-79
2023/05/07 09:42:49;;;;;;;3.50;2.72;;;25.50;76.10;;;;;;6251128;28;20049;-78
2023/05/07 09:45:52;;;;;;;4.78;2.33;;;25.50;75.90;;;;;;6249184;28;20041;-80
2023/05/07 09:48:57;;;;;;;7.15;3.10;;;25.60;75.70;;;;;;6252701;28;20045;-80
2023/05/07 09:52:01;;;;;;;3.10;2.78;;;25.80;74.70;;;;;;6248394;28;20045;-80
2023/05/07 09:55:05;;;;;;;3.72;3.15;;;26.00;74.80;;;;;;6251609;28;20112;-80
2023/05/07 09:58:08;;;;;;;3.53;2.78;;;26.30;74.60;;;;;;6246223;28;20046;-80
2023/05/07 10:01:12;;;;;;;3.05;2.75;;;26.40;73.90;;;;;;6249136;28;20053;-80
2023/05/07 10:04:15;;;;;;;3.55;2.38;;;26.50;73.40;;;;;;6246176;28;20056;-80
2023/05/07 10:07:18;;;;;;;2.85;2.55;;;26.60;72.60;;;;;;6250367;28;20056;-80
2023/05/07 10:10:20;;;;;;;7.15;2.40;;;26.60;72.30;;;;;;6248758;28;20049;-79
2023/05/07 10:13:22;;;;;;;2.75;2.08;;;26.80;71.90;;;;;;6250642;28;20056;-79
2023/05/07 10:16:27;;;;;;;3.60;2.10;;;26.90;70.80;;;;;;6250333;28;20037;-79
2023/05/07 10:19:30;;;;;;;2.17;1.50;;;27.10;70.00;;;;;;6254367;28;20056;-79
2023/05/07 10:22:38;;;;;;;2.63;2.42;;;27.30;68.80;;;;;;6253790;28;20041;-80
2023/05/07 10:25:41;;;;;;;4.15;2.47;;;27.70;68.10;;;;;;6248248;28;20041;-79
2023/05/07 10:28:46;;;;;;;2.22;1.80;;;28.00;67.50;;;;;;6255414;28;20053;-79
2023/05/07 10:32:01;;;;;;;4.13;2.45;;;28.30;67.10;;;;;;6251862;28;20057;-79
2023/05/07 10:35:05;;;;;;;2.35;1.77;;;28.50;66.80;;;;;;6248281;28;20037;-80
2023/05/07 10:38:08;;;;;;;2.75;1.95;;;28.40;66.60;;;;;;6252450;28;20045;-80
2023/05/07 10:41:11;;;;;;;5.25;2.78;;;28.40;66.40;;;;;;6251717;28;20052;-79
2023/05/07 10:44:12;;;;;;;2.50;1.98;;;28.70;66.50;;;;;;6258543;28;20487;-79
2023/05/07 10:47:18;;;;;;;4.78;2.03;;;28.90;66.00;;;;;;6258598;28;20046;-79
2023/05/07 10:50:24;;;;;;;2.60;2.15;;;29.10;65.70;;;;;;6258194;28;20076;-80
2023/05/07 10:53:29;;;;;;;2.08;1.88;;;29.30;64.50;;;;;;6256644;28;20087;-80
2023/05/07 10:56:31;;;;;;;3.17;2.75;;;29.60;63.80;;;;;;6257574;28;20057;-79
2023/05/07 10:59:41;;;;;;;2.45;2.03;;;29.90;63.00;;;;;;6265704;28;20052;-78
2023/05/07 11:03:06;;;;;;;3.65;1.60;;;30.00;62.00;;;;;;6261127;28;20056;-79
2023/05/07 11:06:12;;;;;;;3.05;2.17;;;30.30;61.30;;;;;;6254930;28;20415;-80
2023/05/07 11:09:14;;;;;;;5.32;2.22;;;30.40;60.70;;;;;;6251771;28;20037;-80
2023/05/07 11:12:16;;;;;;;2.28;2.08;;;30.50;60.60;;;;;;6255316;28;20127;-80
2023/05/07 11:15:34;;;;;;;4.97;2.17;;;30.60;60.30;;;;;;6256436;28;20057;-79
2023/05/07 11:18:49;;;;;;;2.70;1.90;;;31.00;59.10;;;;;;6256360;28;20135;-80
2023/05/07 11:21:51;;;;;;;3.40;1.88;;;31.00;58.50;;;;;;6254411;28;20056;-80
2023/05/07 11:24:53;;;;;;;2.47;2.25;;;31.00;58.40;;;;;;6255099;28;20138;-81
2023/05/07 11:27:57;;;;;;;1.98;1.77;;;30.70;58.50;;;;;;6256321;28;20054;-80
2023/05/07 11:30:59;;;;;;;3.00;2.35;;;30.50;58.50;;;;;;6254602;28;20416;-79
2023/05/07 11:34:02;;;;;;;2.50;2.03;;;30.50;58.50;;;;;;6255382;28;20056;-80
2023/05/07 11:37:05;;;;;;;3.83;1.85;;;30.40;58.40;;;;;;6251887;28;20053;-79
2023/05/07 11:40:10;;;;;;;1.98;1.80;;;30.40;58.10;;;;;;6253412;28;20049;-79
2023/05/07 11:43:12;;;;;;;2.80;1.90;;;30.40;57.90;;;;;;6254567;28;20519;-79
2023/05/07 11:46:14;;;;;;;2.38;2.17;;;30.70;57.70;;;;;;6250902;28;20053;-80
2023/05/07 11:49:17;;;;;;;1.77;1.67;;;30.70;56.90;;;;;;6248789;28;20087;-78
2023/05/07 11:52:21;;;;;;;2.75;2.03;;;30.60;56.50;;;;;;6255067;28;20415;-80
2023/05/07 11:55:24;;;;;;;3.55;1.80;;;30.50;56.80;;;;;;6253268;28;20258;-79
2023/05/07 11:58:26;;;;;;;2.80;1.85;;;30.30;57.20;;;;;;6251966;28;20034;-82
2023/05/07 12:01:28;;;;;;;3.22;2.05;;;30.10;57.60;;;;;;6252339;28;20053;-79
2023/05/07 12:04:32;;;;;;;3.40;2.10;;;29.90;58.10;;;;;;6247078;28;20046;-79
2023/05/07 12:07:34;;;;;;;4.32;2.38;;;29.90;58.00;;;;;;6253242;28;20503;-80
2023/05/07 12:10:41;;;;;;;6.20;2.40;;;29.80;57.80;;;;;;6252852;28;20056;-80
2023/05/07 12:13:43;;;;;;;1.90;1.80;;;29.70;58.30;;;;;;6248950;28;20049;-79
2023/05/07 12:16:46;;;;;;;4.47;1.98;;;29.70;58.70;;;;;;6253872;28;20523;-81
2023/05/07 12:19:49;;;;;;;2.88;2.28;;;29.80;58.30;;;;;;6255067;28;20092;-79
2023/05/07 12:22:52;;;;;;;2.80;2.42;;;29.80;58.30;;;;;;6253530;28;20531;-81
2023/05/07 12:25:54;;;;;;;2.17;1.98;;;29.80;58.30;;;;;;6249748;28;20132;-80
2023/05/07 12:28:55;;;;;;;2.67;1.90;;;29.60;58.30;;;;;;6226005;28;20061;-80
2023/05/07 12:31:57;;;;;;;3.08;2.53;;;29.40;58.50;;;;;;6251160;28;20049;-80
2023/05/07 12:35:00;;;;;;;2.85;2.03;;;29.10;58.70;;;;;;6251114;28;20050;-79
2023/05/07 12:38:04;;;;;;;3.03;2.83;;;29.10;58.80;;;;;;6249032;28;20046;-79
2023/05/07 12:41:07;;;;;;;4.60;2.20;;;29.10;59.40;;;;;;6251929;28;20037;-80
2023/05/07 12:44:08;;;;;;;6.32;2.15;;;29.20;59.40;;;;;;6248748;28;20408;-79
2023/05/07 12:47:10;;;;;;;3.75;2.85;;;29.20;59.40;;;;;;6255408;28;20048;-79
2023/05/07 12:50:13;;;;;;;2.72;2.53;;;29.00;59.20;;;;;;6250008;28;20503;-78
2023/05/07 12:53:15;;;;;;;7.70;3.70;;;28.90;59.40;;;;;;6246151;28;20519;-79
2023/05/07 12:56:17;;;;;;;7.82;2.67;;;28.60;59.40;;;;;;6251062;28;20064;-78
2023/05/07 12:59:19;;;;;;;6.68;2.78;;;28.40;59.60;;;;;;6254484;28;20432;-82
2023/05/07 13:02:20;;;;;;;3.45;2.50;;;28.10;60.40;;;;;;6248822;28;20048;-78
2023/05/07 13:05:24;;;;;;;2.53;2.17;;;27.90;60.70;;;;;;6246935;28;20049;-79
2023/05/07 13:08:28;;;;;;;4.78;1.90;;;27.80;60.50;;;;;;6249808;28;20041;-78
2023/05/07 13:11:29;;;;;;;2.33;2.13;;;27.60;60.70;;;;;;6249816;28;20074;-78
2023/05/07 13:14:32;;;;;;;6.43;3.35;;;27.50;60.80;;;;;;6246634;28;20506;-79
2023/05/07 13:17:34;;;;;;;3.58;2.33;;;27.60;60.60;;;;;;6249251;28;20037;-79
2023/05/07 13:20:37;;;;;;;3.42;2.65;;;27.60;60.00;;;;;;6247831;28;20045;-78
2023/05/07 13:23:39;;;;;;;2.08;1.80;;;27.60;60.00;;;;;;6252291;28;20045;-80
2023/05/07 13:26:40;;;;;;;2.22;2.00;;;27.40;59.90;;;;;;6247330;28;20114;-79
2023/05/07 13:29:42;;;;;;;3.40;2.40;;;27.50;60.30;;;;;;6248964;28;20542;-79
2023/05/07 13:32:45;;;;;;;3.55;2.10;;;27.80;59.80;;;;;;6255267;28;20516;-79
2023/05/07 13:35:48;;;;;;;7.03;2.80;;;28.20;59.40;;;;;;6253152;28;20053;-79
2023/05/07 13:38:52;;;;;;;4.10;1.95;;;28.30;59.10;;;;;;6252978;28;20049;-78
2023/05/07 13:41:53;;;;;;;3.30;1.92;;;28.00;58.70;;;;;;6250629;28;20630;-78
2023/05/07 13:44:56;;;;;;;3.92;2.08;;;27.80;58.80;;;;;;6253045;28;20057;-78
2023/05/07 13:47:58;;;;;;;4.85;2.60;;;27.80;59.20;;;;;;6253218;28;20049;-78
2023/05/07 13:51:01;;;;;;;6.38;2.38;;;27.90;58.90;;;;;;6253025;28;20044;-79
2023/05/07 13:54:04;;;;;;;2.95;1.95;;;27.70;59.00;;;;;;6255520;28;20041;-78
2023/05/07 13:57:05;;;;;;;3.72;3.33;;;27.60;60.00;;;;;;6254313;28;20045;-78
2023/05/07 14:00:08;;;;;;;4.45;3.72;;;27.60;59.90;;;;;;6255522;28;20057;-78
2023/05/07 14:03:10;;;;;;;8.35;3.90;;;27.50;61.30;;;;;;6248000;28;20053;-79
2023/05/07 14:06:13;;;;;;;9.23;4.18;;;27.40;62.10;;;;;;6256401;28;20049;-78
2023/05/07 14:09:14;;;;;;;5.68;4.25;;;27.10;63.00;;;;;;6256435;28;20041;-78
2023/05/07 14:12:16;;;;;;;8.07;3.97;;;26.40;63.60;;;;;;6248625;28;20053;-78
2023/05/07 14:15:18;;;;;;;5.05;4.03;;;26.00;64.70;;;;;;6251077;28;20049;-78
2023/05/07 14:18:20;;;;;;;6.22;5.25;;;25.70;65.60;;;;;;6257449;28;20037;-78
2023/05/07 14:21:23;;;;;;;4.90;3.78;;;25.50;65.90;;;;;;6254271;28;20120;-78
2023/05/07 14:24:25;;;;;;;3.53;2.58;;;25.50;66.70;;;;;;6251254;28;20551;-78
2023/05/07 14:27:27;;;;;;;3.97;1.90;;;25.50;66.00;;;;;;6254130;28;20080;-78
2023/05/07 14:30:29;;;;;;;1.15;1.05;;;25.20;64.20;;;;;;6251988;28;20045;-78
2023/05/07 14:33:30;;;;;;;1.25;1.15;;;25.00;64.00;;;;;;6250036;28;20522;-78
2023/05/07 14:36:33;;;;;;;3.03;1.73;;;24.80;62.70;;;;;;6251781;28;20042;-78
2023/05/07 14:39:35;;;;;;;1.10;0.98;;;24.60;62.50;;;;;;6249050;28;23430;-78
2023/05/07 14:42:37;;;;;;;1.15;1.05;;;24.50;62.10;;;;;;6264187;28;20084;-78
2023/05/07 14:45:39;;;;;;;1.15;1.00;;;24.30;61.80;;;;;;6248417;28;20056;-78
2023/05/07 14:48:41;;;;;;;4.18;1.20;;;24.30;62.50;;;;;;6244815;28;20046;-78
2023/05/07 14:51:44;;;;;;;1.63;1.00;;;24.50;62.80;;;;;;6241927;28;20580;-78
2023/05/07 14:54:46;;;;;;;3.03;1.10;;;24.30;63.20;;;;;;6242901;28;20050;-79
2023/05/07 14:57:48;;;;;;;1.90;1.38;;;24.30;63.90;;;;;;6240794;28;20068;-79
2023/05/07 15:00:50;;;;;;;1.85;1.35;;;24.30;63.90;;;;;;6244146;28;20064;-78
2023/05/07 15:03:51;;;;;;;2.92;1.55;;;24.30;64.30;;;;;;6246276;28;20171;-78
2023/05/07 15:06:55;;;;;;;3.13;1.25;;;24.30;64.60;;;;;;6245223;28;20049;-78
2023/05/07 15:09:57;;;;;;;3.42;1.35;;;24.20;64.80;;;;;;6247958;28;20366;-78
2023/05/07 15:12:59;;;;;;;3.38;1.20;;;24.20;65.10;;;;;;6245802;28;20052;-78
2023/05/07 15:16:00;;;;;;;1.77;1.10;;;24.10;65.50;;;;;;6243596;28;20052;-79
2023/05/07 15:19:02;;;;;;;1.42;1.20;;;24.10;65.70;;;;;;6241652;28;20045;-78
2023/05/07 15:22:06;;;;;;;1.60;1.45;;;24.00;66.40;;;;;;6245871;28;20512;-77
2023/05/07 15:25:08;;;;;;;2.28;1.10;;;23.90;66.90;;;;;;6246677;28;20041;-78
2023/05/07 15:28:10;;;;;;;3.58;1.25;;;23.70;67.40;;;;;;6251069;28;20044;-78
2023/05/07 15:31:12;;;;;;;3.38;1.40;;;23.70;67.60;;;;;;6250072;28;20056;-79
2023/05/07 15:34:14;;;;;;;2.42;1.27;;;23.70;67.60;;;;;;6251542;28;20045;-78
2023/05/07 15:37:17;;;;;;;2.35;1.73;;;23.70;67.60;;;;;;6250691;28;20047;-78
2023/05/07 15:40:19;;;;;;;2.33;1.65;;;23.70;68.00;;;;;;6247815;28;20053;-79
2023/05/07 15:43:21;;;;;;;3.38;1.70;;;23.70;68.20;;;;;;6249652;28;20509;-78
2023/05/07 15:46:24;;;;;;;3.40;1.95;;;23.80;68.70;;;;;;6249778;28;20064;-78
2023/05/07 15:49:26;;;;;;;2.10;1.88;;;23.90;69.10;;;;;;6246293;28;20038;-78